createdAt,value
2023-05-18T00:00:11.342Z,73.32
2023-05-18T00:02:42.048Z,74.06
2023-05-18T00:05:10.654Z,73.60
2023-05-18T00:07:37.656Z,73.86
2023-05-18T00:10:04.305Z,74.08
2023-05-18T00:12:31.126Z,73.75
2023-05-18T00:14:57.740Z,73.66
2023-05-18T00:17:24.593Z,73.49
2023-05-18T00:19:52.048Z,73.56
2023-05-18T00:22:20.667Z,73.40
2023-05-18T00:24:48.687Z,73.39
2023-05-18T00:27:17.366Z,72.48
2023-05-18T00:29:46.223Z,72.96
2023-05-18T00:32:13.874Z,72.95
2023-05-18T00:34:41.830Z,72.51
2023-05-18T00:37:08.565Z,72.58
2023-05-18T00:39:35.278Z,72.38
2023-05-18T00:42:02.573Z,73.01
2023-05-18T00:44:29.281Z,72.41
2023-05-18T00:46:55.933Z,72.52
2023-05-18T00:49:22.672Z,72.48
2023-05-18T00:51:49.642Z,72.61
2023-05-18T00:54:16.950Z,72.95
2023-05-18T00:56:46.762Z,72.75
2023-05-18T00:59:13.559Z,72.75
2023-05-18T01:01:46.754Z,73.05
2023-05-18T01:04:14.773Z,73.17
2023-05-18T01:06:42.853Z,72.83
2023-05-18T01:09:12.320Z,73.27
2023-05-18T01:11:57.205Z,73.32
2023-05-18T01:14:59.868Z,73.96
2023-05-18T01:17:40.447Z,74.17
2023-05-18T01:20:26.654Z,74.08
2023-05-18T01:23:12.414Z,74.70
2023-05-18T01:25:54.307Z,75.09
2023-05-18T01:28:28.517Z,75.68
2023-05-18T01:30:56.562Z,75.72
2023-05-18T01:33:24.795Z,76.15
2023-05-18T01:35:51.994Z,76.07
2023-05-18T01:38:22.499Z,76.29
2023-05-18T01:40:51.988Z,76.38
2023-05-18T01:43:21.505Z,76.45
2023-05-18T01:45:56.532Z,76.66
2023-05-18T01:48:25.370Z,76.73
2023-05-18T01:50:56.528Z,77.13
2023-05-18T01:53:23.173Z,77.15
2023-05-18T01:55:52.652Z,77.22
2023-05-18T01:58:20.454Z,77.18
2023-05-18T02:00:47.217Z,77.18
2023-05-18T02:03:14.835Z,77.28
2023-05-18T02:05:41.525Z,76.73
2023-05-18T02:08:08.282Z,76.80
2023-05-18T02:10:34.903Z,77.63
2023-05-18T02:13:02.020Z,77.66
2023-05-18T02:15:29.288Z,78.27
2023-05-18T02:17:58.274Z,78.21
2023-05-18T02:20:25.229Z,78.53
2023-05-18T02:22:52.020Z,78.66
2023-05-18T02:25:19.163Z,78.57
2023-05-18T02:27:45.829Z,78.43
2023-05-18T02:30:15.780Z,78.12
2023-05-18T02:32:42.944Z,78.43
2023-05-18T02:35:10.287Z,78.29
2023-05-18T02:37:40.329Z,78.29
2023-05-18T02:40:10.459Z,78.69
2023-05-18T02:42:37.164Z,78.70
2023-05-18T02:45:04.419Z,78.50
2023-05-18T02:47:31.096Z,78.42
2023-05-18T02:49:57.768Z,78.36
2023-05-18T02:52:24.528Z,78.44
2023-05-18T02:54:51.277Z,78.58
2023-05-18T02:57:17.958Z,78.80
2023-05-18T02:59:44.705Z,79.08
2023-05-18T03:02:14.497Z,78.72
2023-05-18T03:04:41.858Z,78.68
2023-05-18T03:07:08.765Z,78.83
2023-05-18T03:09:35.598Z,78.77
2023-05-18T03:12:02.360Z,78.96
2023-05-18T03:14:30.229Z,78.87
2023-05-18T03:16:58.051Z,78.85
2023-05-18T03:19:25.011Z,78.54
2023-05-18T03:21:51.897Z,79.01
2023-05-18T03:24:18.647Z,79.00
2023-05-18T03:26:45.310Z,79.12
2023-05-18T03:29:13.577Z,78.99
2023-05-18T03:31:41.086Z,79.06
2023-05-18T03:34:07.770Z,79.02
2023-05-18T03:36:35.717Z,79.19
2023-05-18T03:39:02.609Z,78.95
2023-05-18T03:41:30.121Z,79.07
2023-05-18T03:43:56.979Z,79.08
2023-05-18T03:46:23.828Z,79.07
2023-05-18T03:48:51.453Z,78.99
2023-05-18T03:51:18.189Z,79.00
2023-05-18T03:53:45.053Z,79.03
2023-05-18T03:56:13.445Z,79.35
2023-05-18T03:58:40.097Z,79.61
2023-05-18T04:01:06.805Z,79.44
2023-05-18T04:03:34.812Z,79.34
2023-05-18T04:06:01.894Z,79.24
2023-05-18T04:08:30.547Z,78.83
2023-05-18T04:10:57.289Z,78.84
2023-05-18T04:13:24.037Z,79.03
2023-05-18T04:15:50.886Z,79.01
2023-05-18T04:18:17.574Z,78.90
2023-05-18T04:20:46.189Z,78.86
2023-05-18T04:23:12.966Z,78.50
2023-05-18T04:25:43.855Z,78.63
2023-05-18T04:28:10.457Z,78.69
2023-05-18T04:30:39.890Z,78.57
2023-05-18T04:33:09.295Z,78.50
2023-05-18T04:35:36.121Z,78.00
2023-05-18T04:38:02.890Z,77.82
2023-05-18T04:40:33.986Z,76.80
2023-05-18T04:43:01.906Z,76.61
2023-05-18T04:45:28.867Z,76.50
2023-05-18T04:47:55.742Z,76.11
2023-05-18T04:50:26.138Z,75.76
2023-05-18T04:52:53.572Z,75.61
2023-05-18T04:55:27.880Z,74.88
2023-05-18T04:58:00.440Z,75.02
2023-05-18T05:00:31.371Z,74.13
2023-05-18T05:02:59.363Z,73.82
2023-05-18T05:05:27.095Z,73.33
2023-05-18T05:07:54.518Z,72.46
2023-05-18T05:10:21.840Z,72.20
2023-05-18T05:12:50.579Z,71.20
2023-05-18T05:15:18.184Z,71.01
2023-05-18T05:17:47.069Z,70.54
2023-05-18T05:20:14.119Z,70.91
2023-05-18T05:22:40.912Z,70.32
2023-05-18T05:25:08.045Z,69.62
2023-05-18T05:27:35.032Z,69.62
2023-05-18T05:30:03.018Z,69.31
2023-05-18T05:32:29.661Z,68.54
2023-05-18T05:34:56.367Z,67.88
2023-05-18T05:37:23.000Z,67.84
2023-05-18T05:39:49.649Z,67.79
2023-05-18T05:42:16.511Z,66.73
2023-05-18T05:44:43.146Z,66.23
2023-05-18T05:47:10.615Z,65.91
2023-05-18T05:49:37.329Z,66.26
2023-05-18T05:52:04.413Z,66.08
2023-05-18T05:54:31.354Z,65.86
2023-05-18T05:56:58.049Z,65.83
2023-05-18T05:59:24.858Z,65.11
2023-05-18T06:01:51.664Z,64.90
2023-05-18T06:04:18.556Z,64.88
2023-05-18T06:06:47.885Z,64.58
2023-05-18T06:09:14.634Z,64.06
2023-05-18T06:11:41.301Z,64.07
2023-05-18T06:14:07.896Z,63.77
2023-05-18T06:16:34.643Z,63.65
2023-05-18T06:19:01.271Z,63.26
2023-05-18T06:21:28.119Z,63.13
2023-05-18T06:23:54.815Z,63.22
2023-05-18T06:26:23.015Z,62.57
2023-05-18T06:28:49.753Z,62.37
2023-05-18T06:31:17.122Z,62.00
2023-05-18T06:33:43.813Z,62.52
2023-05-18T06:36:10.486Z,61.96
2023-05-18T06:38:37.097Z,61.93
2023-05-18T06:41:03.976Z,61.62
2023-05-18T06:43:30.966Z,61.29
2023-05-18T06:45:57.638Z,60.89
2023-05-18T06:48:28.608Z,60.73
2023-05-18T06:50:55.667Z,60.20
2023-05-18T06:53:23.408Z,60.38
2023-05-18T06:55:50.201Z,60.12
2023-05-18T06:58:16.942Z,60.11
2023-05-18T07:00:43.718Z,59.80
2023-05-18T07:03:11.089Z,59.17
2023-05-18T07:05:39.470Z,59.27
2023-05-18T07:08:07.451Z,58.89
2023-05-18T07:10:35.549Z,59.34
2023-05-18T07:13:02.392Z,59.54
2023-05-18T07:15:30.370Z,59.83
2023-05-18T07:17:57.740Z,59.89
2023-05-18T07:20:26.418Z,59.58
2023-05-18T07:22:56.535Z,59.11
2023-05-18T07:25:23.874Z,58.86
2023-05-18T07:27:54.655Z,58.13
2023-05-18T07:30:22.378Z,57.49
2023-05-18T07:32:49.292Z,57.67
2023-05-18T07:35:17.033Z,57.17
2023-05-18T07:37:43.792Z,56.79
2023-05-18T07:40:11.461Z,56.74
2023-05-18T07:42:40.017Z,55.87
2023-05-18T07:45:07.230Z,55.67
2023-05-18T07:47:34.099Z,55.00
2023-05-18T07:50:00.796Z,54.99
2023-05-18T07:52:27.462Z,54.39
2023-05-18T07:54:57.061Z,53.86
2023-05-18T07:57:25.404Z,53.48
2023-05-18T07:59:52.293Z,53.46
2023-05-18T08:02:20.125Z,52.84
2023-05-18T08:04:48.234Z,52.23
2023-05-18T08:07:15.087Z,52.74
2023-05-18T08:09:41.900Z,52.81
2023-05-18T08:12:08.946Z,52.85
2023-05-18T08:14:35.920Z,51.78
2023-05-18T08:17:04.917Z,51.80
2023-05-18T08:19:37.246Z,52.17
2023-05-18T08:22:05.939Z,51.53
2023-05-18T08:24:33.840Z,51.57
2023-05-18T08:27:00.621Z,50.66
2023-05-18T08:29:30.158Z,51.25
2023-05-18T08:31:56.908Z,50.65
2023-05-18T08:34:23.689Z,51.10
2023-05-18T08:36:50.422Z,50.61
2023-05-18T08:39:17.076Z,50.09
2023-05-18T08:42:02.182Z,49.76
2023-05-18T08:44:44.666Z,49.61
2023-05-18T08:47:12.880Z,49.37
2023-05-18T08:49:42.914Z,49.60
2023-05-18T08:52:17.828Z,49.73
2023-05-18T08:54:44.883Z,50.53
2023-05-18T08:57:12.413Z,51.15
2023-05-18T08:59:42.167Z,50.17
2023-05-18T09:02:10.057Z,50.00
2023-05-18T09:04:38.702Z,50.45
2023-05-18T09:07:07.359Z,49.96
2023-05-18T09:09:35.582Z,50.12
2023-05-18T09:12:03.292Z,50.19
2023-05-18T09:14:32.545Z,49.59
2023-05-18T09:16:59.224Z,49.76
2023-05-18T09:19:26.027Z,49.92
2023-05-18T09:21:52.753Z,48.80
2023-05-18T09:24:23.766Z,48.39
2023-05-18T09:26:51.703Z,46.84
2023-05-18T09:29:20.148Z,47.10
2023-05-18T09:31:48.467Z,45.87
2023-05-18T09:34:16.411Z,46.66
2023-05-18T09:36:49.461Z,47.12
2023-05-18T09:39:16.167Z,46.03
2023-05-18T09:41:42.945Z,46.26
2023-05-18T09:44:12.795Z,44.53
2023-05-18T09:46:40.326Z,44.86
2023-05-18T09:49:08.505Z,44.70
2023-05-18T09:51:36.564Z,44.54
2023-05-18T09:54:06.632Z,45.03
2023-05-18T09:56:37.202Z,44.67
2023-05-18T09:59:15.754Z,45.45
2023-05-18T10:02:05.919Z,45.45
2023-05-18T10:04:42.942Z,45.85
2023-05-18T10:07:14.088Z,46.10
2023-05-18T10:09:42.087Z,45.74
2023-05-18T10:12:16.305Z,45.58
2023-05-18T10:14:46.495Z,45.51
2023-05-18T10:17:16.291Z,45.24
2023-05-18T10:19:44.777Z,44.75
2023-05-18T10:22:16.086Z,44.97
2023-05-18T10:24:46.397Z,44.75
2023-05-18T10:27:16.050Z,45.48
2023-05-18T10:29:43.475Z,44.08
2023-05-18T10:32:14.197Z,44.09
2023-05-18T10:34:43.595Z,44.40
2023-05-18T10:37:12.270Z,44.73
2023-05-18T10:39:45.273Z,44.66
2023-05-18T10:42:13.393Z,43.05
2023-05-18T10:44:40.177Z,43.53
2023-05-18T10:47:09.126Z,44.06
2023-05-18T10:49:36.341Z,43.66
2023-05-18T10:52:03.977Z,42.00
2023-05-18T10:54:30.790Z,42.18
2023-05-18T10:56:57.737Z,41.53
2023-05-18T10:59:25.590Z,41.43
2023-05-18T11:01:54.224Z,41.10
2023-05-18T11:04:27.328Z,41.31
2023-05-18T11:06:55.466Z,40.80
2023-05-18T11:09:24.095Z,40.73
2023-05-18T11:11:56.481Z,40.25
2023-05-18T11:14:27.748Z,39.54
2023-05-18T11:16:54.843Z,39.99
2023-05-18T11:19:26.431Z,40.67
2023-05-18T11:21:53.885Z,40.81
2023-05-18T11:24:31.189Z,39.66
2023-05-18T11:27:01.260Z,40.01
2023-05-18T11:29:51.847Z,41.15
2023-05-18T11:32:31.471Z,41.26
2023-05-18T11:34:59.588Z,42.39
2023-05-18T11:37:45.325Z,42.28
2023-05-18T11:40:13.908Z,41.10
2023-05-18T11:42:40.769Z,42.58
2023-05-18T11:45:08.626Z,41.03
2023-05-18T11:47:36.812Z,41.07
2023-05-18T11:50:08.646Z,41.66
2023-05-18T11:52:47.168Z,40.91
2023-05-18T11:55:15.502Z,42.13
2023-05-18T11:57:48.962Z,40.99
2023-05-18T12:00:17.107Z,40.21
2023-05-18T12:02:45.365Z,40.96
2023-05-18T12:05:13.232Z,40.65
2023-05-18T12:07:41.734Z,40.64
2023-05-18T12:10:10.307Z,41.79
2023-05-18T12:12:36.988Z,42.04
2023-05-18T12:15:06.514Z,40.95
2023-05-18T12:17:44.101Z,40.44
2023-05-18T12:20:15.291Z,40.21
2023-05-18T12:22:44.248Z,39.95
2023-05-18T12:25:11.748Z,40.01
2023-05-18T12:27:44.622Z,39.35
2023-05-18T12:30:13.930Z,39.67
2023-05-18T12:32:55.039Z,39.17
2023-05-18T12:35:26.242Z,39.07
2023-05-18T12:37:55.638Z,38.73
2023-05-18T12:40:22.673Z,39.31
2023-05-18T12:42:59.528Z,39.72
2023-05-18T12:45:34.482Z,39.18
2023-05-18T12:48:05.644Z,39.26
2023-05-18T12:50:32.425Z,38.79
2023-05-18T12:52:59.238Z,39.17
2023-05-18T12:55:26.611Z,38.26
2023-05-18T12:58:08.778Z,38.06
2023-05-18T13:00:37.239Z,38.57
2023-05-18T13:03:15.324Z,38.79
2023-05-18T13:05:45.869Z,38.32
2023-05-18T13:08:22.192Z,39.27
2023-05-18T13:10:57.985Z,39.24
2023-05-18T13:13:32.671Z,40.12
2023-05-18T13:16:02.432Z,40.76
2023-05-18T13:18:29.283Z,41.09
2023-05-18T13:20:57.085Z,39.96
2023-05-18T13:23:27.481Z,40.14
2023-05-18T13:25:56.689Z,39.62
2023-05-18T13:28:24.805Z,38.95
2023-05-18T13:30:51.516Z,38.77
2023-05-18T13:33:19.425Z,38.19
2023-05-18T13:35:46.832Z,38.77
2023-05-18T13:38:14.444Z,39.24
2023-05-18T13:40:41.833Z,38.52
2023-05-18T13:43:11.162Z,39.04
2023-05-18T13:45:40.038Z,39.18
2023-05-18T13:48:11.286Z,38.68
2023-05-18T13:50:39.115Z,38.31
2023-05-18T13:53:06.687Z,37.69
2023-05-18T13:55:34.463Z,37.97
2023-05-18T13:58:01.497Z,38.05
2023-05-18T14:00:28.653Z,38.43
2023-05-18T14:02:56.608Z,37.76
2023-05-18T14:05:23.572Z,38.41
2023-05-18T14:07:52.476Z,37.94
2023-05-18T14:10:19.282Z,38.94
2023-05-18T14:12:46.239Z,38.91
2023-05-18T14:15:14.274Z,38.74
2023-05-18T14:17:41.533Z,39.04
2023-05-18T14:20:08.943Z,38.36
2023-05-18T14:22:35.827Z,37.48
2023-05-18T14:25:02.628Z,37.37
2023-05-18T14:27:30.021Z,38.04
2023-05-18T14:29:58.466Z,37.19
2023-05-18T14:32:25.608Z,37.63
2023-05-18T14:34:55.332Z,37.66
2023-05-18T14:37:22.221Z,37.16
2023-05-18T14:39:49.048Z,36.44
2023-05-18T14:42:15.797Z,37.16
2023-05-18T14:44:42.473Z,36.76
2023-05-18T14:47:10.617Z,36.50
2023-05-18T14:49:38.926Z,36.02
2023-05-18T14:52:05.956Z,36.46
2023-05-18T14:54:32.820Z,36.29
2023-05-18T14:56:59.966Z,36.07
2023-05-18T14:59:28.728Z,35.96
2023-05-18T15:01:55.760Z,35.74
2023-05-18T15:04:23.633Z,36.08
2023-05-18T15:06:50.435Z,36.32
2023-05-18T15:09:17.485Z,36.52
2023-05-18T15:11:44.725Z,36.63
2023-05-18T15:14:11.694Z,36.43
2023-05-18T15:16:39.121Z,37.62
2023-05-18T15:19:06.218Z,38.27
2023-05-18T15:21:33.154Z,38.36
2023-05-18T15:24:00.102Z,38.07
2023-05-18T15:26:27.577Z,37.64
2023-05-18T15:28:54.611Z,37.54
2023-05-18T15:31:21.634Z,37.64
2023-05-18T15:33:48.410Z,37.73
2023-05-18T15:36:15.263Z,38.17
2023-05-18T15:38:41.964Z,38.24
2023-05-18T15:41:09.110Z,38.04
2023-05-18T15:43:36.888Z,37.32
2023-05-18T15:46:03.739Z,37.39
2023-05-18T15:48:30.819Z,37.07
2023-05-18T15:50:58.575Z,37.15
2023-05-18T15:53:25.372Z,37.62
2023-05-18T15:55:56.628Z,37.38
2023-05-18T15:58:25.666Z,37.77
2023-05-18T16:00:52.508Z,37.54
2023-05-18T16:03:19.650Z,37.12
2023-05-18T16:05:46.693Z,38.49
2023-05-18T16:08:13.710Z,37.54
2023-05-18T16:10:40.457Z,38.65
2023-05-18T16:13:07.382Z,38.78
2023-05-18T16:15:35.110Z,38.94
2023-05-18T16:18:02.430Z,39.00
2023-05-18T16:20:30.002Z,38.89
2023-05-18T16:22:57.258Z,39.09
2023-05-18T16:25:25.449Z,39.34
2023-05-18T16:27:52.241Z,40.24
2023-05-18T16:30:18.946Z,40.65
2023-05-18T16:32:45.818Z,40.09
2023-05-18T16:35:12.717Z,41.85
2023-05-18T16:37:39.914Z,41.62
2023-05-18T16:40:07.488Z,41.32
2023-05-18T16:42:34.450Z,41.50
2023-05-18T16:45:01.814Z,42.16
2023-05-18T16:47:28.726Z,41.48
2023-05-18T16:49:55.657Z,41.86
2023-05-18T16:52:22.451Z,42.47
2023-05-18T16:54:49.295Z,41.61
2023-05-18T16:57:17.374Z,42.79
2023-05-18T16:59:44.175Z,42.90
2023-05-18T17:02:13.508Z,43.61
2023-05-18T17:04:50.498Z,42.73
2023-05-18T17:07:17.555Z,43.25
2023-05-18T17:09:44.486Z,43.25
2023-05-18T17:12:11.796Z,44.14
2023-05-18T17:14:42.295Z,44.60
2023-05-18T17:17:12.140Z,45.00
2023-05-18T17:19:40.583Z,45.13
2023-05-18T17:22:10.546Z,45.03
2023-05-18T17:24:37.486Z,45.75
2023-05-18T17:27:05.174Z,46.23
2023-05-18T17:29:31.815Z,46.11
2023-05-18T17:31:58.497Z,46.27
2023-05-18T17:34:27.075Z,46.67
2023-05-18T17:36:56.674Z,47.20
2023-05-18T17:39:23.350Z,47.13
2023-05-18T17:41:52.507Z,47.59
2023-05-18T17:44:19.353Z,48.51
2023-05-18T17:46:46.460Z,48.47
2023-05-18T17:49:13.655Z,48.31
2023-05-18T17:51:40.725Z,48.71
2023-05-18T17:54:08.275Z,48.10
2023-05-18T17:56:35.436Z,48.67
2023-05-18T17:59:05.655Z,48.84
2023-05-18T18:01:33.510Z,48.89
2023-05-18T18:04:01.623Z,49.07
2023-05-18T18:06:28.519Z,49.44
2023-05-18T18:08:57.986Z,49.85
2023-05-18T18:11:26.623Z,50.04
2023-05-18T18:13:54.044Z,51.30
2023-05-18T18:16:21.443Z,51.77
2023-05-18T18:18:50.721Z,52.41
2023-05-18T18:21:17.403Z,53.00
2023-05-18T18:23:44.260Z,53.18
2023-05-18T18:26:11.260Z,53.81
2023-05-18T18:28:40.111Z,54.11
2023-05-18T18:31:07.936Z,54.61
2023-05-18T18:33:34.773Z,55.12
2023-05-18T18:36:02.555Z,55.06
2023-05-18T18:38:29.568Z,55.79
2023-05-18T18:41:01.425Z,56.25
2023-05-18T18:43:28.762Z,56.39
2023-05-18T18:45:57.270Z,56.70
2023-05-18T18:48:24.903Z,56.86
2023-05-18T18:50:51.616Z,56.86
2023-05-18T18:53:18.321Z,57.28
2023-05-18T18:55:46.096Z,57.81
2023-05-18T18:58:12.772Z,58.68
2023-05-18T19:00:39.556Z,58.29
2023-05-18T19:03:06.305Z,59.22
2023-05-18T19:05:33.188Z,59.66
2023-05-18T19:08:01.783Z,60.31
2023-05-18T19:10:28.492Z,60.25
2023-05-18T19:12:55.200Z,60.76
2023-05-18T19:15:22.006Z,60.75
2023-05-18T19:17:53.717Z,61.04
2023-05-18T19:20:21.047Z,60.90
2023-05-18T19:22:47.975Z,61.81
2023-05-18T19:25:14.804Z,61.99
2023-05-18T19:27:41.803Z,62.44
2023-05-18T19:30:09.017Z,62.30
2023-05-18T19:32:35.767Z,63.08
2023-05-18T19:35:02.881Z,63.48
2023-05-18T19:37:29.574Z,63.91
2023-05-18T19:39:56.341Z,63.97
2023-05-18T19:42:23.083Z,64.91
2023-05-18T19:44:49.690Z,65.06
2023-05-18T19:47:16.594Z,65.69
2023-05-18T19:49:43.613Z,66.99
2023-05-18T19:52:11.139Z,67.13
2023-05-18T19:54:38.634Z,66.17
2023-05-18T19:57:05.672Z,66.01
2023-05-18T19:59:32.401Z,65.55
2023-05-18T20:01:59.646Z,65.81
2023-05-18T20:04:28.472Z,67.56
2023-05-18T20:07:01.878Z,67.45
2023-05-18T20:09:29.261Z,68.04
2023-05-18T20:11:56.287Z,68.09
2023-05-18T20:14:23.791Z,68.64
2023-05-18T20:16:52.522Z,68.86
2023-05-18T20:19:19.393Z,69.00
2023-05-18T20:21:48.562Z,69.06
2023-05-18T20:24:15.337Z,68.83
2023-05-18T20:26:42.006Z,68.40
2023-05-18T20:29:08.756Z,68.62
2023-05-18T20:31:35.949Z,68.16
2023-05-18T20:34:02.805Z,68.57
2023-05-18T20:36:29.938Z,69.10
2023-05-18T20:38:56.695Z,69.29
2023-05-18T20:41:24.432Z,69.76
2023-05-18T20:43:52.368Z,70.24
2023-05-18T20:46:24.925Z,70.46
2023-05-18T20:48:55.266Z,70.20
2023-05-18T20:51:23.372Z,70.92
2023-05-18T20:53:50.180Z,71.66
2023-05-18T20:56:18.094Z,72.32
2023-05-18T20:58:48.474Z,72.55
2023-05-18T21:01:16.178Z,72.47
2023-05-18T21:03:45.014Z,72.08
2023-05-18T21:06:13.215Z,72.14
2023-05-18T21:08:40.983Z,72.20
2023-05-18T21:11:07.635Z,72.03
2023-05-18T21:13:36.779Z,72.10
2023-05-18T21:16:06.500Z,72.38
2023-05-18T21:18:34.392Z,72.12
2023-05-18T21:21:02.437Z,72.53
2023-05-18T21:23:30.369Z,73.72
2023-05-18T21:25:57.819Z,74.57
2023-05-18T21:28:25.036Z,74.42
2023-05-18T21:30:52.370Z,74.09
2023-05-18T21:33:19.337Z,74.05
2023-05-18T21:35:46.160Z,74.76
2023-05-18T21:38:12.737Z,75.44
2023-05-18T21:40:42.104Z,75.18
2023-05-18T21:43:10.333Z,74.91
2023-05-18T21:45:37.112Z,75.07
2023-05-18T21:48:04.048Z,75.69
2023-05-18T21:50:34.665Z,75.12
2023-05-18T21:53:03.272Z,74.89
2023-05-18T21:55:33.692Z,74.37
2023-05-18T21:58:00.691Z,74.77
2023-05-18T22:00:28.047Z,75.84
2023-05-18T22:02:54.740Z,76.80
2023-05-18T22:05:21.756Z,76.31
2023-05-18T22:07:49.290Z,77.01
2023-05-18T22:10:17.899Z,76.47
2023-05-18T22:12:45.075Z,76.58
2023-05-18T22:15:12.874Z,77.06
2023-05-18T22:17:39.965Z,76.85
2023-05-18T22:20:11.623Z,76.90
2023-05-18T22:22:40.288Z,77.63
2023-05-18T22:25:07.456Z,78.09
2023-05-18T22:27:36.589Z,77.95
2023-05-18T22:30:05.022Z,78.20
2023-05-18T22:32:32.002Z,77.81
2023-05-18T22:35:00.026Z,77.92
2023-05-18T22:37:26.736Z,78.11
2023-05-18T22:39:53.846Z,78.00
2023-05-18T22:42:21.356Z,78.66
2023-05-18T22:44:49.037Z,79.53
2023-05-18T22:47:19.768Z,79.69
2023-05-18T22:49:46.490Z,79.12
2023-05-18T22:52:13.492Z,79.37
2023-05-18T22:54:40.189Z,79.58
2023-05-18T22:57:06.776Z,80.28
2023-05-18T22:59:33.562Z,79.79
2023-05-18T23:02:01.228Z,79.64
2023-05-18T23:04:27.945Z,79.07
2023-05-18T23:06:54.718Z,79.09
2023-05-18T23:09:21.309Z,79.31
2023-05-18T23:11:49.958Z,80.19
2023-05-18T23:14:16.558Z,80.49
2023-05-18T23:16:43.336Z,80.29
2023-05-18T23:19:12.592Z,80.24
2023-05-18T23:21:42.370Z,79.94
2023-05-18T23:24:12.264Z,80.20
2023-05-18T23:26:42.760Z,79.46
2023-05-18T23:29:10.402Z,80.55
2023-05-18T23:31:37.403Z,80.46
2023-05-18T23:34:04.914Z,80.94
2023-05-18T23:36:35.241Z,81.03
2023-05-18T23:39:02.526Z,80.71
2023-05-18T23:41:31.480Z,80.59
2023-05-18T23:43:58.639Z,80.77
2023-05-18T23:46:26.666Z,80.34
2023-05-18T23:48:54.166Z,80.95
2023-05-18T23:51:21.756Z,80.46
2023-05-18T23:53:50.919Z,80.52
2023-05-18T23:56:18.570Z,80.55
2023-05-18T23:58:46.940Z,81.29
